Time;durP1;ratioP1;P1;durP2;ratioP2;P2;SDS_P1;SDS_P2;PMS_P1;PMS_P2;Temp;Humidity;BMP_temperature;BMP_pressure;BME280_temperature;BME280_humidity;BME280_pressure;Samples;Min_cycle;Max_cycle;Signal;HPM_P1;HPM_P2
2022/08/01 00:00:32;;;;;;;0.83;0.73;;;;;;;;;;5121025;27;20210;-59
2022/08/01 00:03:19;;;;;;;0.90;0.90;;;;;;;;;;5117791;27;20206;-58
2022/08/01 00:06:06;;;;;;;0.70;0.70;;;;;;;;;;5122894;27;20228;-58
2022/08/01 00:08:53;;;;;;;0.70;0.70;;;;;;;;;;5130665;27;20248;-58
2022/08/01 00:11:41;;;;;;;1.00;1.00;;;;;;;;;;5117769;27;20691;-58
2022/08/01 00:14:29;;;;;;;0.80;0.80;;;;;;;;;;5121577;27;20212;-59
2022/08/01 00:17:16;;;;;;;0.70;0.70;;;;;;;;;;5118527;27;20565;-59
2022/08/01 00:20:04;;;;;;;0.70;0.70;;;;;;;;;;5117573;27;20697;-59
2022/08/01 00:22:51;;;;;;;0.93;0.93;;;;;;;;;;5117799;27;20624;-57
2022/08/01 00:25:38;;;;;;;0.70;0.70;;;;;;;;;;5119927;27;20245;-58
2022/08/01 00:28:27;;;;;;;0.77;0.77;;;;;;;;;;5120758;27;20211;-58
2022/08/01 00:31:14;;;;;;;0.70;0.70;;;;;;;;;;5117643;27;20307;-57
2022/08/01 00:34:01;;;;;;;0.73;0.73;;;;;;;;;;5113753;27;20218;-58
2022/08/01 00:36:48;;;;;;;0.80;0.80;;;;;;;;;;5123537;27;20202;-57
2022/08/01 00:39:35;;;;;;;0.60;0.60;;;;;;;;;;5127463;27;20295;-57
2022/08/01 00:42:22;;;;;;;0.60;0.60;;;;;;;;;;5117165;27;20282;-58
2022/08/01 00:45:11;;;;;;;0.70;0.70;;;;;;;;;;5115791;27;20231;-57
2022/08/01 00:47:58;;;;;;;0.80;0.80;;;;;;;;;;5121198;27;20664;-57
2022/08/01 00:50:45;;;;;;;0.77;0.77;;;;;;;;;;5118930;27;20235;-58
2022/08/01 00:53:32;;;;;;;0.70;0.70;;;;;;;;;;5125106;27;20288;-57
2022/08/01 00:56:20;;;;;;;0.80;0.80;;;;;;;;;;5114778;27;20586;-58
2022/08/01 00:59:08;;;;;;;0.70;0.70;;;;;;;;;;5119606;27;20274;-58
2022/08/01 01:01:57;;;;;;;0.50;0.50;;;;;;;;;;5116492;27;20487;-62
2022/08/01 01:04:44;;;;;;;0.80;0.80;;;;;;;;;;5120970;27;20210;-62
2022/08/01 01:07:42;;;;;;;0.70;0.70;;;;;;;;;;5118165;27;20643;-62
2022/08/01 01:10:36;;;;;;;0.83;0.83;;;;;;;;;;5124408;27;20231;-61
2022/08/01 01:13:35;;;;;;;0.77;0.77;;;;;;;;;;5119653;27;20214;-62
2022/08/01 01:16:23;;;;;;;0.70;0.70;;;;;;;;;;5122828;27;20207;-62
2022/08/01 01:19:17;;;;;;;0.70;0.70;;;;;;;;;;5116990;27;20205;-62
2022/08/01 01:22:22;;;;;;;0.80;0.80;;;;;;;;;;5124455;27;20198;-62
2022/08/01 01:25:22;;;;;;;0.63;0.63;;;;;;;;;;5119703;27;20319;-62
2022/08/01 01:28:17;;;;;;;0.90;0.90;;;;;;;;;;5117443;27;20689;-61
2022/08/01 01:31:08;;;;;;;0.80;0.80;;;;;;;;;;5121640;27;20233;-62
2022/08/01 01:33:58;;;;;;;0.80;0.80;;;;;;;;;;5113350;27;20205;-61
2022/08/01 01:36:48;;;;;;;0.50;0.50;;;;;;;;;;5121635;27;20217;-62
2022/08/01 01:39:37;;;;;;;0.67;0.67;;;;;;;;;;5114081;27;20210;-62
2022/08/01 01:42:26;;;;;;;0.83;0.70;;;;;;;;;;5120217;27;20202;-62
2022/08/01 01:45:14;;;;;;;0.70;0.70;;;;;;;;;;5121025;27;20198;-62
2022/08/01 01:48:04;;;;;;;0.60;0.60;;;;;;;;;;5123722;27;20206;-62
2022/08/01 01:50:53;;;;;;;0.73;0.73;;;;;;;;;;5120688;27;20712;-62
2022/08/01 01:53:42;;;;;;;0.60;0.60;;;;;;;;;;5117902;27;20236;-62
2022/08/01 01:56:31;;;;;;;0.60;0.60;;;;;;;;;;5121757;27;20203;-62
2022/08/01 01:59:20;;;;;;;0.60;0.60;;;;;;;;;;5122113;27;20628;-61
2022/08/01 02:02:08;;;;;;;0.73;0.73;;;;;;;;;;5124951;27;20273;-62
2022/08/01 02:04:58;;;;;;;0.77;0.77;;;;;;;;;;5121151;27;20211;-62
2022/08/01 02:07:46;;;;;;;0.80;0.80;;;;;;;;;;5117536;27;20203;-62
2022/08/01 02:10:35;;;;;;;0.70;0.70;;;;;;;;;;5116902;27;20696;-62
2022/08/01 02:13:23;;;;;;;0.67;0.67;;;;;;;;;;5117690;27;20215;-62
2022/08/01 02:16:12;;;;;;;0.90;0.90;;;;;;;;;;5113893;27;20211;-62
2022/08/01 02:18:59;;;;;;;0.80;0.80;;;;;;;;;;5115298;27;20644;-61
2022/08/01 02:21:52;;;;;;;0.70;0.70;;;;;;;;;;5118849;27;20213;-62
2022/08/01 02:24:43;;;;;;;0.70;0.70;;;;;;;;;;5120102;27;20208;-62
2022/08/01 02:27:35;;;;;;;0.90;0.90;;;;;;;;;;5116519;27;20206;-62
2022/08/01 02:30:24;;;;;;;0.90;0.90;;;;;;;;;;5118383;27;20267;-62
2022/08/01 02:33:16;;;;;;;0.80;0.80;;;;;;;;;;5119223;27;20265;-62
2022/08/01 02:36:04;;;;;;;0.50;0.50;;;;;;;;;;5119990;27;20279;-62
2022/08/01 02:38:55;;;;;;;0.60;0.60;;;;;;;;;;5120038;27;20284;-62
2022/08/01 02:41:46;;;;;;;0.60;0.60;;;;;;;;;;5120716;27;20212;-62
2022/08/01 02:44:38;;;;;;;0.63;0.60;;;;;;;;;;5102628;27;20208;-63
2022/08/01 02:47:29;;;;;;;0.80;0.80;;;;;;;;;;5117552;27;20207;-62
2022/08/01 02:50:18;;;;;;;0.80;0.80;;;;;;;;;;5117255;27;20210;-63
2022/08/01 02:53:07;;;;;;;0.83;0.83;;;;;;;;;;5117956;27;20208;-63
2022/08/01 02:55:58;;;;;;;3.80;0.80;;;;;;;;;;5111630;28;20246;-62
2022/08/01 02:58:46;;;;;;;0.77;0.60;;;;;;;;;;5117112;28;20239;-62
2022/08/01 03:01:35;;;;;;;0.90;0.90;;;;;;;;;;5114079;27;20204;-62
2022/08/01 03:04:23;;;;;;;0.60;0.60;;;;;;;;;;5118417;28;20223;-62
2022/08/01 03:07:12;;;;;;;0.80;0.80;;;;;;;;;;5114343;28;20641;-62
2022/08/01 03:09:59;;;;;;;0.80;0.80;;;;;;;;;;5117713;28;20249;-62
2022/08/01 03:12:50;;;;;;;0.80;0.80;;;;;;;;;;5116594;28;20325;-62
2022/08/01 03:15:40;;;;;;;0.80;0.80;;;;;;;;;;5116248;28;20209;-62
2022/08/01 03:18:29;;;;;;;0.70;0.70;;;;;;;;;;5118492;28;20211;-62
2022/08/01 03:21:18;;;;;;;0.70;0.70;;;;;;;;;;5115640;28;20206;-62
2022/08/01 03:24:07;;;;;;;0.60;0.60;;;;;;;;;;5117861;28;20208;-62
2022/08/01 03:26:56;;;;;;;0.60;0.60;;;;;;;;;;5105813;28;20216;-62
2022/08/01 03:29:46;;;;;;;0.70;0.70;;;;;;;;;;5112054;28;20265;-62
2022/08/01 03:32:33;;;;;;;0.70;0.70;;;;;;;;;;5112581;28;20257;-62
2022/08/01 03:35:21;;;;;;;0.90;0.90;;;;;;;;;;5110859;28;20304;-62
2022/08/01 03:38:10;;;;;;;0.70;0.70;;;;;;;;;;5107205;28;20262;-62
2022/08/01 03:41:02;;;;;;;0.93;0.90;;;;;;;;;;5111163;28;20250;-62
2022/08/01 03:43:55;;;;;;;0.83;0.83;;;;;;;;;;5112027;28;20498;-62
2022/08/01 03:46:47;;;;;;;0.60;0.60;;;;;;;;;;5109317;28;20202;-62
2022/08/01 03:49:38;;;;;;;1.00;1.00;;;;;;;;;;5112046;28;20769;-62
2022/08/01 03:52:28;;;;;;;0.77;0.77;;;;;;;;;;5112102;28;20240;-63
2022/08/01 03:55:17;;;;;;;0.80;0.80;;;;;;;;;;5101678;28;20216;-62
2022/08/01 03:58:05;;;;;;;0.70;0.70;;;;;;;;;;5106242;28;20284;-63
2022/08/01 04:00:53;;;;;;;0.70;0.70;;;;;;;;;;5112326;28;20302;-62
2022/08/01 04:03:42;;;;;;;0.70;0.70;;;;;;;;;;5112223;28;20284;-62
2022/08/01 04:06:30;;;;;;;0.80;0.80;;;;;;;;;;5110473;28;20310;-62
2022/08/01 04:09:17;;;;;;;1.43;1.30;;;;;;;;;;5102448;28;20214;-62
2022/08/01 04:12:04;;;;;;;0.60;0.60;;;;;;;;;;5107912;28;20234;-62
2022/08/01 04:14:51;;;;;;;0.67;0.67;;;;;;;;;;5107360;28;20205;-62
2022/08/01 04:17:39;;;;;;;0.83;0.83;;;;;;;;;;5112176;28;20215;-62
2022/08/01 04:20:27;;;;;;;0.80;0.80;;;;;;;;;;5111102;28;20215;-62
2022/08/01 04:23:17;;;;;;;0.73;0.73;;;;;;;;;;5109489;28;20207;-63
2022/08/01 04:26:05;;;;;;;0.97;0.97;;;;;;;;;;5101834;28;20316;-62
2022/08/01 04:28:54;;;;;;;0.90;0.70;;;;;;;;;;5103104;27;20212;-62
2022/08/01 04:31:45;;;;;;;0.90;0.90;;;;;;;;;;5105217;27;20232;-63
2022/08/01 04:34:34;;;;;;;0.73;0.73;;;;;;;;;;5100617;28;20730;-62
2022/08/01 04:37:25;;;;;;;0.80;0.80;;;;;;;;;;5097106;28;20261;-62
2022/08/01 04:40:13;;;;;;;0.80;0.80;;;;;;;;;;5099657;28;20205;-62
2022/08/01 04:43:01;;;;;;;0.77;0.70;;;;;;;;;;5103669;28;20238;-63
2022/08/01 04:45:48;;;;;;;0.77;0.77;;;;;;;;;;5102375;28;20209;-62
2022/08/01 04:48:38;;;;;;;0.80;0.80;;;;;;;;;;5100588;28;20283;-63
2022/08/01 04:51:25;;;;;;;1.00;0.90;;;;;;;;;;5100219;28;20216;-63
2022/08/01 04:54:13;;;;;;;0.60;0.60;;;;;;;;;;5097594;28;20200;-62
2022/08/01 04:57:01;;;;;;;0.80;0.80;;;;;;;;;;5098856;28;20209;-63
2022/08/01 04:59:49;;;;;;;0.90;0.90;;;;;;;;;;5093895;28;20701;-63
2022/08/01 05:02:36;;;;;;;0.73;0.73;;;;;;;;;;5102547;28;20200;-62
2022/08/01 05:05:25;;;;;;;0.77;0.77;;;;;;;;;;5100514;28;20227;-62
2022/08/01 05:08:12;;;;;;;0.70;0.70;;;;;;;;;;5100962;27;20662;-62
2022/08/01 05:11:01;;;;;;;0.83;0.83;;;;;;;;;;5097598;28;20611;-62
2022/08/01 05:13:48;;;;;;;0.67;0.67;;;;;;;;;;5098901;28;20213;-62
2022/08/01 05:16:36;;;;;;;0.70;0.70;;;;;;;;;;5099944;28;20241;-63
2022/08/01 05:19:23;;;;;;;0.67;0.67;;;;;;;;;;5102484;28;20212;-63
2022/08/01 05:22:11;;;;;;;0.93;0.93;;;;;;;;;;5103161;27;20204;-63
2022/08/01 05:24:59;;;;;;;0.97;0.90;;;;;;;;;;5102264;28;20264;-63
2022/08/01 05:27:47;;;;;;;0.80;0.80;;;;;;;;;;5096825;28;20216;-62
2022/08/01 05:30:34;;;;;;;0.73;0.73;;;;;;;;;;5101286;28;20285;-62
2022/08/01 05:33:21;;;;;;;0.80;0.80;;;;;;;;;;5099848;28;20310;-62
2022/08/01 05:36:08;;;;;;;0.77;0.77;;;;;;;;;;5100263;28;20289;-62
2022/08/01 05:38:55;;;;;;;0.93;0.93;;;;;;;;;;5105365;28;20212;-62
2022/08/01 05:41:42;;;;;;;0.80;0.80;;;;;;;;;;5100103;28;20211;-62
2022/08/01 05:44:31;;;;;;;0.60;0.60;;;;;;;;;;5096615;28;20208;-63
2022/08/01 05:47:18;;;;;;;0.80;0.80;;;;;;;;;;5098287;28;20571;-63
2022/08/01 05:50:06;;;;;;;1.00;1.00;;;;;;;;;;5098601;28;20708;-63
2022/08/01 05:52:53;;;;;;;0.80;0.80;;;;;;;;;;5094972;28;20308;-63
2022/08/01 05:55:40;;;;;;;0.70;0.70;;;;;;;;;;5100450;28;20212;-63
2022/08/01 05:58:27;;;;;;;0.60;0.60;;;;;;;;;;5103158;28;20778;-63
2022/08/01 06:01:16;;;;;;;0.80;0.80;;;;;;;;;;5097740;28;20227;-63
2022/08/01 06:04:03;;;;;;;0.90;0.90;;;;;;;;;;5094653;28;21068;-63
2022/08/01 06:06:50;;;;;;;0.90;0.90;;;;;;;;;;5099216;28;20331;-63
2022/08/01 06:09:37;;;;;;;0.80;0.80;;;;;;;;;;5098795;28;20215;-63
2022/08/01 06:12:24;;;;;;;1.47;0.70;;;;;;;;;;5099061;28;20252;-63
2022/08/01 06:15:11;;;;;;;0.80;0.80;;;;;;;;;;5097359;28;20205;-63
2022/08/01 06:18:00;;;;;;;0.83;0.83;;;;;;;;;;5100075;28;20221;-63
2022/08/01 06:20:47;;;;;;;0.90;0.90;;;;;;;;;;5097875;28;20218;-64
2022/08/01 06:23:34;;;;;;;0.70;0.70;;;;;;;;;;5100580;28;20237;-63
2022/08/01 06:26:21;;;;;;;1.00;1.00;;;;;;;;;;5098583;28;20326;-62
2022/08/01 06:29:08;;;;;;;0.80;0.80;;;;;;;;;;5097327;28;20210;-62
2022/08/01 06:31:56;;;;;;;0.90;0.90;;;;;;;;;;5102559;28;20827;-62
2022/08/01 06:34:44;;;;;;;0.67;0.67;;;;;;;;;;5100806;28;20248;-62
2022/08/01 06:37:32;;;;;;;0.70;0.70;;;;;;;;;;5084209;28;20589;-63
2022/08/01 06:40:19;;;;;;;0.67;0.67;;;;;;;;;;5102117;28;20206;-62
2022/08/01 06:43:06;;;;;;;0.70;0.70;;;;;;;;;;5096138;28;20202;-63
2022/08/01 06:45:53;;;;;;;0.80;0.80;;;;;;;;;;5100359;28;20209;-62
2022/08/01 06:48:40;;;;;;;0.70;0.70;;;;;;;;;;5100308;28;20609;-63
2022/08/01 06:51:28;;;;;;;0.63;0.63;;;;;;;;;;5098950;28;20205;-62
2022/08/01 06:54:15;;;;;;;1.00;1.00;;;;;;;;;;5105495;28;20202;-62
2022/08/01 06:57:05;;;;;;;0.80;0.80;;;;;;;;;;5099008;28;20202;-62
2022/08/01 06:59:53;;;;;;;0.70;0.70;;;;;;;;;;5098784;28;20546;-62
2022/08/01 07:02:40;;;;;;;0.80;0.80;;;;;;;;;;5095600;28;20205;-62
2022/08/01 07:05:30;;;;;;;1.00;1.00;;;;;;;;;;5098827;28;20213;-62
2022/08/01 07:08:19;;;;;;;1.40;0.90;;;;;;;;;;5094137;28;20211;-63
2022/08/01 07:11:06;;;;;;;0.80;0.80;;;;;;;;;;5093139;28;20213;-62
2022/08/01 07:13:53;;;;;;;0.63;0.63;;;;;;;;;;5099622;28;20699;-63
2022/08/01 07:16:40;;;;;;;0.70;0.70;;;;;;;;;;5099293;28;20237;-63
2022/08/01 07:19:27;;;;;;;0.70;0.70;;;;;;;;;;5104010;28;20212;-62
2022/08/01 07:22:16;;;;;;;0.93;0.93;;;;;;;;;;5102228;28;20256;-63
2022/08/01 07:25:05;;;;;;;0.60;0.60;;;;;;;;;;5098914;28;20700;-62
2022/08/01 07:27:52;;;;;;;1.00;0.90;;;;;;;;;;5103116;28;20223;-62
2022/08/01 07:30:41;;;;;;;0.80;0.80;;;;;;;;;;5098032;28;20209;-62
2022/08/01 07:33:28;;;;;;;0.90;0.90;;;;;;;;;;5095818;28;20224;-62
2022/08/01 07:36:15;;;;;;;0.70;0.70;;;;;;;;;;5098538;28;20213;-62
2022/08/01 07:39:02;;;;;;;0.93;0.93;;;;;;;;;;5096833;28;20270;-62
2022/08/01 07:41:51;;;;;;;0.70;0.70;;;;;;;;;;5101142;28;20219;-62
2022/08/01 07:44:38;;;;;;;0.93;0.93;;;;;;;;;;5101724;28;20209;-62
2022/08/01 07:47:25;;;;;;;0.70;0.70;;;;;;;;;;5094604;28;20361;-63
2022/08/01 07:50:13;;;;;;;0.93;0.83;;;;;;;;;;5101342;28;20259;-64
2022/08/01 07:53:02;;;;;;;0.87;0.87;;;;;;;;;;5090991;28;20226;-63
2022/08/01 07:55:49;;;;;;;0.90;0.90;;;;;;;;;;5095606;28;20216;-62
2022/08/01 07:58:38;;;;;;;0.80;0.80;;;;;;;;;;5099160;28;20205;-62
2022/08/01 08:01:25;;;;;;;0.70;0.70;;;;;;;;;;5098845;28;20214;-62
2022/08/01 08:04:11;;;;;;;0.70;0.70;;;;;;;;;;5097024;28;20661;-62
2022/08/01 08:06:58;;;;;;;0.93;0.93;;;;;;;;;;5098281;28;20228;-62
2022/08/01 08:09:45;;;;;;;0.80;0.80;;;;;;;;;;5100631;28;20696;-62
2022/08/01 08:12:33;;;;;;;0.80;0.80;;;;;;;;;;5096970;28;20229;-62
2022/08/01 08:15:21;;;;;;;0.93;0.93;;;;;;;;;;5098834;28;20239;-62
2022/08/01 08:18:08;;;;;;;0.90;0.90;;;;;;;;;;5097806;28;20213;-62
2022/08/01 08:20:55;;;;;;;0.80;0.80;;;;;;;;;;5101104;27;20209;-62
2022/08/01 08:26:59;;;;;;;1.07;0.83;;;;;;;;;;5039520;28;20218;-61
2022/08/01 08:29:46;;;;;;;0.70;0.70;;;;;;;;;;5092490;28;20264;-64
2022/08/01 08:32:35;;;;;;;1.00;1.00;;;;;;;;;;5099636;28;20696;-63
2022/08/01 08:35:22;;;;;;;0.80;0.80;;;;;;;;;;5101219;28;20199;-62
2022/08/01 08:38:09;;;;;;;0.97;0.77;;;;;;;;;;5097108;28;20217;-62
2022/08/01 08:40:57;;;;;;;0.70;0.70;;;;;;;;;;5098798;28;20711;-62
2022/08/01 08:43:44;;;;;;;0.90;0.90;;;;;;;;;;5100837;28;20206;-61
2022/08/01 08:46:33;;;;;;;0.80;0.80;;;;;;;;;;5095222;28;20213;-62
2022/08/01 08:49:24;;;;;;;0.90;0.90;;;;;;;;;;5098700;28;20679;-61
2022/08/01 08:52:12;;;;;;;0.83;0.83;;;;;;;;;;5104210;28;20194;-62
2022/08/01 08:54:59;;;;;;;0.70;0.70;;;;;;;;;;5098847;28;20218;-64
2022/08/01 08:57:46;;;;;;;0.80;0.77;;;;;;;;;;5094707;28;20291;-62
2022/08/01 09:00:35;;;;;;;0.90;0.90;;;;;;;;;;5097724;28;20220;-62
2022/08/01 09:03:22;;;;;;;0.65;0.65;;;;;;;;;;5096180;28;20213;-62
2022/08/01 09:06:11;;;;;;;0.70;0.70;;;;;;;;;;5100413;28;20317;-63
2022/08/01 09:08:58;;;;;;;0.65;0.65;;;;;;;;;;5099777;28;20289;-62
2022/08/01 09:11:45;;;;;;;0.93;0.82;;;;;;;;;;5099168;28;20274;-62
2022/08/01 09:14:34;;;;;;;0.70;0.70;;;;;;;;;;5098933;28;20209;-61
2022/08/01 09:17:22;;;;;;;0.85;0.85;;;;;;;;;;5100302;28;20258;-62
2022/08/01 09:20:23;;;;;;;0.50;0.50;;;;;;;;;;5094129;28;20792;-62
2022/08/01 09:23:32;;;;;;;0.70;0.70;;;;;;;;;;5097703;28;20289;-62
2022/08/01 09:26:22;;;;;;;0.70;0.70;;;;;;;;;;5098462;28;20241;-62
2022/08/01 09:29:17;;;;;;;0.63;0.63;;;;;;;;;;5098963;28;20696;-62
2022/08/01 09:32:06;;;;;;;0.85;0.70;;;;;;;;;;5095037;28;20303;-62
2022/08/01 09:34:53;;;;;;;0.80;0.80;;;;;;;;;;5095781;28;20604;-62
2022/08/01 09:37:40;;;;;;;1.00;1.00;;;;;;;;;;5105417;28;20377;-62
2022/08/01 09:40:45;;;;;;;1.02;1.02;;;;;;;;;;5093059;28;20256;-62
2022/08/01 09:43:32;;;;;;;0.70;0.70;;;;;;;;;;5096382;28;20198;-62
2022/08/01 09:46:19;;;;;;;0.70;0.70;;;;;;;;;;5100496;28;20267;-62
2022/08/01 09:49:07;;;;;;;0.88;0.88;;;;;;;;;;5099473;28;20670;-62
2022/08/01 09:51:54;;;;;;;0.60;0.60;;;;;;;;;;5101427;28;20283;-63
2022/08/01 09:54:43;;;;;;;0.80;0.80;;;;;;;;;;5098542;28;20233;-62
2022/08/01 09:57:32;;;;;;;0.80;0.80;;;;;;;;;;5088302;27;20220;-62
2022/08/01 10:00:19;;;;;;;0.88;0.88;;;;;;;;;;5100042;27;20213;-62
2022/08/01 10:03:21;;;;;;;0.82;0.82;;;;;;;;;;5099119;27;20210;-61
2022/08/01 10:06:21;;;;;;;0.70;0.70;;;;;;;;;;5094864;27;20708;-62
2022/08/01 10:09:08;;;;;;;0.60;0.60;;;;;;;;;;5099077;28;20256;-62
2022/08/01 10:11:56;;;;;;;0.70;0.70;;;;;;;;;;5097988;27;20258;-62
2022/08/01 10:14:46;;;;;;;0.80;0.80;;;;;;;;;;5104506;27;20225;-62
2022/08/01 10:17:35;;;;;;;0.80;0.80;;;;;;;;;;5098955;28;20238;-62
2022/08/01 10:20:25;;;;;;;0.70;0.70;;;;;;;;;;5089485;28;20244;-62
2022/08/01 10:23:12;;;;;;;0.75;0.75;;;;;;;;;;5092929;28;20827;-62
2022/08/01 10:26:01;;;;;;;0.80;0.80;;;;;;;;;;5094314;28;20247;-63
2022/08/01 10:28:49;;;;;;;0.60;0.60;;;;;;;;;;5094935;27;20201;-63
2022/08/01 10:31:38;;;;;;;0.77;0.75;;;;;;;;;;5095551;27;20209;-63
2022/08/01 10:34:25;;;;;;;0.63;0.63;;;;;;;;;;5098310;28;20260;-62
2022/08/01 10:37:13;;;;;;;0.80;0.80;;;;;;;;;;5097068;28;20210;-64
2022/08/01 10:40:01;;;;;;;0.70;0.70;;;;;;;;;;5091850;28;20282;-63
2022/08/01 10:42:48;;;;;;;0.77;0.77;;;;;;;;;;5097825;28;20555;-63
2022/08/01 10:45:36;;;;;;;0.75;0.75;;;;;;;;;;5101288;28;20232;-63
2022/08/01 10:48:30;;;;;;;0.90;0.90;;;;;;;;;;5097058;28;20217;-61
2022/08/01 10:51:19;;;;;;;1.25;0.60;;;;;;;;;;5093839;28;20213;-61
2022/08/01 10:54:07;;;;;;;1.20;0.77;;;;;;;;;;5094259;28;20231;-62
2022/08/01 10:56:56;;;;;;;0.93;0.73;;;;;;;;;;5089362;28;20699;-61
2022/08/01 10:59:50;;;;;;;0.70;0.70;;;;;;;;;;5093826;28;20289;-61
2022/08/01 11:02:40;;;;;;;0.80;0.80;;;;;;;;;;5093095;28;20377;-61
2022/08/01 11:05:32;;;;;;;1.20;0.98;;;;;;;;;;5090616;28;20554;-61
2022/08/01 11:08:22;;;;;;;0.80;0.80;;;;;;;;;;5092520;28;20400;-62
2022/08/01 11:11:10;;;;;;;1.23;0.90;;;;;;;;;;5096104;28;20619;-61
2022/08/01 11:14:06;;;;;;;0.98;0.88;;;;;;;;;;5094109;28;20279;-61
2022/08/01 11:16:53;;;;;;;0.75;0.75;;;;;;;;;;5098732;28;20209;-61
2022/08/01 11:20:05;;;;;;;0.70;0.70;;;;;;;;;;5095346;28;20720;-61
2022/08/01 11:23:18;;;;;;;1.52;0.93;;;;;;;;;;5098473;28;20206;-61
2022/08/01 11:26:10;;;;;;;0.60;0.60;;;;;;;;;;5094358;28;20271;-61
2022/08/01 11:29:15;;;;;;;0.82;0.82;;;;;;;;;;5091298;28;20259;-62
2022/08/01 11:32:35;;;;;;;1.45;0.80;;;;;;;;;;5095047;28;20202;-62
2022/08/01 11:35:24;;;;;;;0.88;0.80;;;;;;;;;;5099844;28;20237;-61
2022/08/01 11:38:28;;;;;;;1.10;1.10;;;;;;;;;;5096937;28;20592;-61
2022/08/01 11:41:17;;;;;;;0.95;0.95;;;;;;;;;;5099253;28;20235;-61
2022/08/01 11:44:06;;;;;;;0.50;0.50;;;;;;;;;;5100091;28;20235;-61
2022/08/01 11:47:02;;;;;;;0.70;0.70;;;;;;;;;;5099584;28;20670;-63
2022/08/01 11:49:54;;;;;;;1.13;0.80;;;;;;;;;;5095121;28;20416;-63
2022/08/01 11:52:42;;;;;;;0.82;0.82;;;;;;;;;;5102352;28;20579;-62
2022/08/01 11:55:30;;;;;;;1.08;1.05;;;;;;;;;;5099875;28;20232;-61
2022/08/01 11:58:22;;;;;;;0.80;0.70;;;;;;;;;;5107001;28;20204;-61
2022/08/01 12:01:14;;;;;;;0.80;0.80;;;;;;;;;;5099161;28;20257;-62
2022/08/01 12:04:01;;;;;;;0.80;0.80;;;;;;;;;;5101496;28;20195;-61
2022/08/01 12:06:48;;;;;;;1.00;1.00;;;;;;;;;;5099135;28;20276;-62
2022/08/01 12:09:35;;;;;;;0.70;0.70;;;;;;;;;;5099211;28;20206;-61
2022/08/01 12:12:23;;;;;;;0.90;0.88;;;;;;;;;;5102670;28;20215;-61
2022/08/01 12:15:12;;;;;;;0.80;0.80;;;;;;;;;;5105834;28;20233;-61
2022/08/01 12:18:01;;;;;;;0.88;0.88;;;;;;;;;;5105713;28;20686;-61
2022/08/01 12:20:48;;;;;;;0.90;0.90;;;;;;;;;;5100776;28;20572;-61
2022/08/01 12:23:35;;;;;;;1.05;0.90;;;;;;;;;;5106237;27;20595;-61
2022/08/01 12:26:22;;;;;;;1.65;0.93;;;;;;;;;;5098078;28;20236;-61
2022/08/01 12:29:10;;;;;;;0.88;0.80;;;;;;;;;;5098017;28;20218;-61
2022/08/01 12:31:57;;;;;;;0.75;0.75;;;;;;;;;;5101701;28;20241;-61
2022/08/01 12:34:44;;;;;;;0.85;0.85;;;;;;;;;;5107508;28;20639;-60
2022/08/01 12:37:31;;;;;;;0.80;0.80;;;;;;;;;;5098246;28;20215;-61
2022/08/01 12:40:20;;;;;;;0.80;0.80;;;;;;;;;;5099407;28;20654;-61
2022/08/01 12:43:09;;;;;;;0.98;0.98;;;;;;;;;;5099155;28;20671;-61
2022/08/01 12:45:59;;;;;;;1.27;1.00;;;;;;;;;;5100855;28;20610;-61
2022/08/01 12:48:46;;;;;;;0.68;0.68;;;;;;;;;;5103201;28;20617;-61
2022/08/01 12:51:33;;;;;;;0.70;0.70;;;;;;;;;;5103123;28;20297;-61
2022/08/01 12:54:22;;;;;;;1.10;1.00;;;;;;;;;;5101062;28;20235;-61
2022/08/01 12:57:23;;;;;;;1.10;1.00;;;;;;;;;;5103145;28;20237;-61
2022/08/01 13:00:20;;;;;;;0.82;0.82;;;;;;;;;;5103319;28;20281;-61
2022/08/01 13:03:11;;;;;;;0.93;0.90;;;;;;;;;;5101774;28;20633;-61
2022/08/01 13:05:59;;;;;;;1.17;0.80;;;;;;;;;;5097241;28;20232;-61
2022/08/01 13:08:46;;;;;;;0.68;0.68;;;;;;;;;;5100525;28;20691;-61
2022/08/01 13:11:33;;;;;;;0.70;0.70;;;;;;;;;;5097318;28;20235;-61
2022/08/01 13:14:28;;;;;;;0.80;0.80;;;;;;;;;;5102936;28;20240;-61
2022/08/01 13:17:31;;;;;;;1.17;1.10;;;;;;;;;;5098665;28;20207;-61
2022/08/01 13:20:33;;;;;;;1.15;0.85;;;;;;;;;;5097228;28;20197;-61
2022/08/01 13:23:20;;;;;;;0.98;0.88;;;;;;;;;;5096563;28;20274;-61
2022/08/01 13:26:07;;;;;;;0.70;0.70;;;;;;;;;;5098988;28;20318;-61
2022/08/01 13:29:05;;;;;;;0.98;0.90;;;;;;;;;;5100001;28;20211;-61
2022/08/01 13:31:52;;;;;;;1.15;0.98;;;;;;;;;;5098406;28;20669;-61
2022/08/01 13:34:39;;;;;;;1.17;0.90;;;;;;;;;;5098297;28;20226;-61
2022/08/01 13:37:27;;;;;;;0.70;0.70;;;;;;;;;;5099656;28;20205;-61
2022/08/01 13:40:24;;;;;;;1.25;1.08;;;;;;;;;;5094386;28;20630;-61
2022/08/01 13:43:11;;;;;;;0.80;0.77;;;;;;;;;;5099744;28;20297;-60
2022/08/01 13:45:59;;;;;;;1.00;0.90;;;;;;;;;;5095923;28;20208;-62
2022/08/01 13:48:46;;;;;;;1.23;1.00;;;;;;;;;;5100848;28;20697;-61
2022/08/01 13:51:33;;;;;;;0.75;0.75;;;;;;;;;;5096222;28;20210;-64
2022/08/01 13:54:23;;;;;;;1.02;0.80;;;;;;;;;;5098354;28;20241;-63
2022/08/01 13:57:10;;;;;;;1.05;0.82;;;;;;;;;;5098297;28;20206;-61
2022/08/01 13:59:59;;;;;;;1.08;0.95;;;;;;;;;;5103328;28;20216;-61
2022/08/01 14:02:46;;;;;;;0.80;0.80;;;;;;;;;;5098074;28;20306;-60
2022/08/01 14:05:33;;;;;;;0.73;0.73;;;;;;;;;;5099352;28;20224;-61
2022/08/01 14:08:20;;;;;;;1.08;0.77;;;;;;;;;;5095209;28;20578;-62
2022/08/01 14:11:08;;;;;;;1.33;0.75;;;;;;;;;;5099227;28;20246;-61
2022/08/01 14:13:55;;;;;;;0.70;0.70;;;;;;;;;;5096535;28;20232;-67
2022/08/01 14:16:44;;;;;;;0.77;0.77;;;;;;;;;;5096775;28;20208;-63
2022/08/01 14:19:31;;;;;;;0.80;0.80;;;;;;;;;;5098465;28;20207;-62
2022/08/01 14:22:19;;;;;;;0.70;0.60;;;;;;;;;;5100065;28;20731;-61
2022/08/01 14:25:07;;;;;;;0.80;0.80;;;;;;;;;;5106122;27;20646;-61
2022/08/01 14:27:55;;;;;;;0.70;0.60;;;;;;;;;;5125022;27;20249;-61
2022/08/01 14:30:42;;;;;;;0.95;0.80;;;;;;;;;;5115434;27;20205;-61
2022/08/01 14:33:30;;;;;;;1.10;1.00;;;;;;;;;;5118983;27;20208;-61
2022/08/01 14:36:17;;;;;;;1.35;0.80;;;;;;;;;;5118786;27;20231;-61
2022/08/01 14:39:04;;;;;;;0.90;0.90;;;;;;;;;;5124782;27;20228;-61
2022/08/01 14:41:51;;;;;;;0.70;0.70;;;;;;;;;;5118420;27;20217;-61
2022/08/01 14:44:39;;;;;;;0.80;0.75;;;;;;;;;;5116293;27;20228;-61
2022/08/01 14:47:26;;;;;;;0.75;0.75;;;;;;;;;;5118542;27;20598;-61
2022/08/01 14:50:15;;;;;;;1.17;1.08;;;;;;;;;;5121336;27;20213;-61
2022/08/01 14:53:03;;;;;;;0.68;0.60;;;;;;;;;;5117081;27;20288;-61
2022/08/01 14:55:50;;;;;;;1.42;0.90;;;;;;;;;;5118068;27;20217;-60
2022/08/01 14:58:37;;;;;;;1.00;0.90;;;;;;;;;;5119505;27;20206;-61
2022/08/01 15:01:25;;;;;;;0.65;0.65;;;;;;;;;;5112728;27;20210;-61
2022/08/01 15:04:12;;;;;;;0.85;0.80;;;;;;;;;;5119265;28;20235;-61
2022/08/01 15:06:59;;;;;;;0.80;0.80;;;;;;;;;;5112223;28;20230;-61
2022/08/01 15:09:46;;;;;;;0.73;0.73;;;;;;;;;;5117905;28;20672;-63
2022/08/01 15:12:33;;;;;;;1.85;1.08;;;;;;;;;;5115530;28;20286;-63
2022/08/01 15:15:21;;;;;;;1.25;0.80;;;;;;;;;;5117896;28;20767;-63
2022/08/01 15:18:09;;;;;;;1.20;1.10;;;;;;;;;;5115315;28;20198;-63
2022/08/01 15:20:57;;;;;;;1.15;1.05;;;;;;;;;;5117048;28;20208;-63
2022/08/01 15:23:43;;;;;;;1.88;1.05;;;;;;;;;;5119841;27;20208;-64
2022/08/01 15:26:30;;;;;;;0.80;0.80;;;;;;;;;;5119588;27;20229;-63
2022/08/01 15:29:17;;;;;;;0.60;0.60;;;;;;;;;;5122204;27;20207;-63
2022/08/01 15:32:06;;;;;;;1.17;0.90;;;;;;;;;;5123232;27;20277;-63
2022/08/01 15:34:54;;;;;;;0.90;0.85;;;;;;;;;;5127650;27;20264;-63
2022/08/01 15:37:42;;;;;;;1.02;0.90;;;;;;;;;;5124999;27;20217;-63
2022/08/01 15:40:32;;;;;;;0.70;0.70;;;;;;;;;;5121002;27;20579;-63
2022/08/01 15:43:19;;;;;;;0.82;0.82;;;;;;;;;;5114161;27;20672;-63
2022/08/01 15:46:06;;;;;;;1.25;0.95;;;;;;;;;;5116207;27;20205;-64
2022/08/01 15:48:53;;;;;;;1.48;1.05;;;;;;;;;;5120556;27;20213;-63
2022/08/01 15:51:42;;;;;;;0.73;0.73;;;;;;;;;;5114585;27;20206;-63
2022/08/01 15:54:29;;;;;;;0.70;0.70;;;;;;;;;;5113529;27;20311;-63
2022/08/01 15:57:16;;;;;;;0.80;0.80;;;;;;;;;;5116306;27;20198;-63
2022/08/01 16:00:04;;;;;;;1.20;1.10;;;;;;;;;;5114264;27;20203;-63
2022/08/01 16:02:51;;;;;;;1.25;0.73;;;;;;;;;;5115750;27;20206;-64
2022/08/01 16:05:38;;;;;;;0.80;0.80;;;;;;;;;;5118918;27;20337;-63
2022/08/01 16:08:26;;;;;;;1.00;0.90;;;;;;;;;;5122822;27;20202;-63
2022/08/01 16:11:13;;;;;;;0.82;0.82;;;;;;;;;;5122437;27;20209;-63
2022/08/01 16:14:01;;;;;;;1.20;1.10;;;;;;;;;;5118040;27;20209;-63
2022/08/01 16:16:48;;;;;;;1.50;0.95;;;;;;;;;;5115216;27;20650;-63
2022/08/01 16:19:35;;;;;;;0.95;0.95;;;;;;;;;;5121861;27;20194;-63
2022/08/01 16:22:22;;;;;;;0.85;0.85;;;;;;;;;;5119785;27;20581;-63
2022/08/01 16:25:12;;;;;;;0.85;0.85;;;;;;;;;;5125356;27;20245;-64
2022/08/01 16:27:59;;;;;;;0.80;0.80;;;;;;;;;;5125288;27;20213;-63
2022/08/01 16:30:46;;;;;;;1.05;0.90;;;;;;;;;;5122927;27;20284;-63
2022/08/01 16:33:33;;;;;;;1.08;0.85;;;;;;;;;;5120865;27;20214;-64
2022/08/01 16:36:21;;;;;;;1.10;0.90;;;;;;;;;;5120008;27;20312;-63
2022/08/01 16:39:07;;;;;;;1.35;0.85;;;;;;;;;;5119346;27;20198;-63
2022/08/01 16:41:56;;;;;;;0.82;0.82;;;;;;;;;;5119271;27;20288;-62
2022/08/01 16:44:44;;;;;;;0.93;0.68;;;;;;;;;;5117268;27;20210;-63
2022/08/01 16:47:31;;;;;;;0.80;0.80;;;;;;;;;;5120792;27;20281;-63
2022/08/01 16:50:18;;;;;;;1.75;0.70;;;;;;;;;;5121099;27;20212;-63
2022/08/01 16:53:06;;;;;;;0.88;0.80;;;;;;;;;;5121217;27;20593;-63
2022/08/01 16:55:53;;;;;;;0.98;0.80;;;;;;;;;;5122934;27;20646;-63